sensor_id;sensor_type;location;lat;lon;timestamp;temperature;humidity
9861;DHT22;4969;52.304;4.968;2023-03-20T00:00:22;11.10;77.07
9861;DHT22;4969;52.304;4.968;2023-03-20T00:02:51;11.13;75.99
9861;DHT22;4969;52.304;4.968;2023-03-20T00:05:19;11.59;79.48
9861;DHT22;4969;52.304;4.968;2023-03-20T00:07:47;12.17;76.46
9861;DHT22;4969;52.304;4.968;2023-03-20T00:10:16;12.31;77.00
9861;DHT22;4969;52.304;4.968;2023-03-20T00:12:44;12.31;75.24
9861;DHT22;4969;52.304;4.968;2023-03-20T00:15:28;12.19;74.10
9861;DHT22;4969;52.304;4.968;2023-03-20T00:17:57;13.02;76.64
9861;DHT22;4969;52.304;4.968;2023-03-20T00:20:24;13.88;74.16
9861;DHT22;4969;52.304;4.968;2023-03-20T00:22:51;14.09;71.89
9861;DHT22;4969;52.304;4.968;2023-03-20T00:25:19;13.93;72.54
9861;DHT22;4969;52.304;4.968;2023-03-20T00:27:46;14.20;72.58
9861;DHT22;4969;52.304;4.968;2023-03-20T00:30:26;13.47;68.40
9861;DHT22;4969;52.304;4.968;2023-03-20T00:32:56;13.13;71.69
9861;DHT22;4969;52.304;4.968;2023-03-20T00:35:26;12.92;70.95
9861;DHT22;4969;52.304;4.968;2023-03-20T00:37:54;12.68;72.41
9861;DHT22;4969;52.304;4.968;2023-03-20T00:40:21;12.65;70.56
9861;DHT22;4969;52.304;4.968;2023-03-20T00:42:55;12.73;72.43
9861;DHT22;4969;52.304;4.968;2023-03-20T00:45:23;12.58;71.61
9861;DHT22;4969;52.304;4.968;2023-03-20T00:47:50;12.40;71.35
9861;DHT22;4969;52.304;4.968;2023-03-20T00:50:20;12.83;73.66
9861;DHT22;4969;52.304;4.968;2023-03-20T00:52:48;12.93;71.21
9861;DHT22;4969;52.304;4.968;2023-03-20T00:55:15;13.23;69.56
9861;DHT22;4969;52.304;4.968;2023-03-20T00:57:45;14.00;72.44
9861;DHT22;4969;52.304;4.968;2023-03-20T01:00:25;13.33;68.98
9861;DHT22;4969;52.304;4.968;2023-03-20T01:02:56;12.96;71.02
9861;DHT22;4969;52.304;4.968;2023-03-20T01:05:25;13.40;70.65
9861;DHT22;4969;52.304;4.968;2023-03-20T01:07:53;14.14;71.73
9861;DHT22;4969;52.304;4.968;2023-03-20T01:10:19;13.93;68.56
9861;DHT22;4969;52.304;4.968;2023-03-20T01:12:47;13.45;69.72
9861;DHT22;4969;52.304;4.968;2023-03-20T01:15:18;13.89;70.97
9861;DHT22;4969;52.304;4.968;2023-03-20T01:17:46;13.92;71.23
9861;DHT22;4969;52.304;4.968;2023-03-20T01:20:15;13.41;69.05
9861;DHT22;4969;52.304;4.968;2023-03-20T01:22:44;13.09;68.73
9861;DHT22;4969;52.304;4.968;2023-03-20T01:25:10;12.79;71.08
9861;DHT22;4969;52.304;4.968;2023-03-20T01:27:37;12.99;70.82
9861;DHT22;4969;52.304;4.968;2023-03-20T01:30:17;13.09;70.65
9861;DHT22;4969;52.304;4.968;2023-03-20T01:32:43;13.17;70.87
9861;DHT22;4969;52.304;4.968;2023-03-20T01:35:12;13.27;70.36
9861;DHT22;4969;52.304;4.968;2023-03-20T01:37:40;14.23;71.02
9861;DHT22;4969;52.304;4.968;2023-03-20T01:40:15;14.31;68.00
9861;DHT22;4969;52.304;4.968;2023-03-20T01:42:45;13.27;66.59
9861;DHT22;4969;52.304;4.968;2023-03-20T01:45:15;13.37;69.48
9861;DHT22;4969;52.304;4.968;2023-03-20T01:47:42;13.33;68.80
9861;DHT22;4969;52.304;4.968;2023-03-20T01:50:19;13.40;68.68
9861;DHT22;4969;52.304;4.968;2023-03-20T01:52:49;13.45;68.11
9861;DHT22;4969;52.304;4.968;2023-03-20T01:55:19;13.66;69.72
9861;DHT22;4969;52.304;4.968;2023-03-20T01:57:47;13.30;68.11
9861;DHT22;4969;52.304;4.968;2023-03-20T02:00:15;13.62;71.04
9861;DHT22;4969;52.304;4.968;2023-03-20T02:02:43;14.35;68.97
9861;DHT22;4969;52.304;4.968;2023-03-20T02:05:12;13.41;64.68
9861;DHT22;4969;52.304;4.968;2023-03-20T02:07:39;13.57;70.18
9861;DHT22;4969;52.304;4.968;2023-03-20T02:10:08;13.57;69.65
9861;DHT22;4969;52.304;4.968;2023-03-20T02:12:37;13.88;71.70
9861;DHT22;4969;52.304;4.968;2023-03-20T02:15:05;14.64;69.21
9861;DHT22;4969;52.304;4.968;2023-03-20T02:17:32;14.75;70.07
9861;DHT22;4969;52.304;4.968;2023-03-20T02:20:06;14.61;68.13
9861;DHT22;4969;52.304;4.968;2023-03-20T02:31:59;14.96;64.58
9861;DHT22;4969;52.304;4.968;2023-03-20T02:38:04;15.10;67.31
9861;DHT22;4969;52.304;4.968;2023-03-20T02:40:39;15.96;63.05
9861;DHT22;4969;52.304;4.968;2023-03-20T02:43:14;16.17;64.62
9861;DHT22;4969;52.304;4.968;2023-03-20T02:45:46;16.23;65.31
9861;DHT22;4969;52.304;4.968;2023-03-20T02:48:23;16.96;62.59
9861;DHT22;4969;52.304;4.968;2023-03-20T02:50:57;16.86;60.06
9861;DHT22;4969;52.304;4.968;2023-03-20T02:53:38;15.81;62.05
9861;DHT22;4969;52.304;4.968;2023-03-20T02:56:13;15.87;64.05
9861;DHT22;4969;52.304;4.968;2023-03-20T02:58:47;15.78;63.47
9861;DHT22;4969;52.304;4.968;2023-03-20T03:01:19;16.19;64.00
9861;DHT22;4969;52.304;4.968;2023-03-20T03:03:49;15.58;64.36
9861;DHT22;4969;52.304;4.968;2023-03-20T03:06:22;15.94;65.20
9861;DHT22;4969;52.304;4.968;2023-03-20T03:08:55;16.03;61.68
9861;DHT22;4969;52.304;4.968;2023-03-20T03:11:24;14.88;61.72
9861;DHT22;4969;52.304;4.968;2023-03-20T03:13:53;15.51;66.18
9861;DHT22;4969;52.304;4.968;2023-03-20T03:16:23;15.94;64.99
9861;DHT22;4969;52.304;4.968;2023-03-20T03:18:59;16.36;60.26
9861;DHT22;4969;52.304;4.968;2023-03-20T03:21:28;16.64;62.73
9861;DHT22;4969;52.304;4.968;2023-03-20T03:23:57;16.08;59.69
9861;DHT22;4969;52.304;4.968;2023-03-20T03:26:25;16.44;62.82
9861;DHT22;4969;52.304;4.968;2023-03-20T03:28:55;16.54;60.43
9861;DHT22;4969;52.304;4.968;2023-03-20T03:31:23;16.47;62.20
9861;DHT22;4969;52.304;4.968;2023-03-20T03:33:52;16.19;64.10
9861;DHT22;4969;52.304;4.968;2023-03-20T03:36:31;15.78;62.30
9861;DHT22;4969;52.304;4.968;2023-03-20T03:39:09;16.10;63.30
9861;DHT22;4969;52.304;4.968;2023-03-20T03:41:40;16.27;64.15
9861;DHT22;4969;52.304;4.968;2023-03-20T03:44:11;16.66;62.62
9861;DHT22;4969;52.304;4.968;2023-03-20T03:46:42;16.72;62.27
9861;DHT22;4969;52.304;4.968;2023-03-20T03:49:14;16.99;60.38
9861;DHT22;4969;52.304;4.968;2023-03-20T03:51:43;16.85;60.17
9861;DHT22;4969;52.304;4.968;2023-03-20T03:54:15;16.31;61.70
9861;DHT22;4969;52.304;4.968;2023-03-20T03:56:46;16.86;61.86
9861;DHT22;4969;52.304;4.968;2023-03-20T03:59:19;17.41;60.84
9861;DHT22;4969;52.304;4.968;2023-03-20T04:01:48;17.32;60.07
9861;DHT22;4969;52.304;4.968;2023-03-20T04:04:16;16.71;59.76
9861;DHT22;4969;52.304;4.968;2023-03-20T04:06:44;16.37;60.78
9861;DHT22;4969;52.304;4.968;2023-03-20T04:09:12;16.05;61.21
9861;DHT22;4969;52.304;4.968;2023-03-20T04:11:38;16.13;59.77
9861;DHT22;4969;52.304;4.968;2023-03-20T04:14:05;16.33;61.86
9861;DHT22;4969;52.304;4.968;2023-03-20T04:16:32;15.48;60.43
9861;DHT22;4969;52.304;4.968;2023-03-20T04:18:58;15.18;61.41
9861;DHT22;4969;52.304;4.968;2023-03-20T04:21:25;15.50;65.19
9861;DHT22;4969;52.304;4.968;2023-03-20T04:23:51;16.00;62.80
9861;DHT22;4969;52.304;4.968;2023-03-20T04:26:19;15.66;62.27
9861;DHT22;4969;52.304;4.968;2023-03-20T04:28:46;16.03;62.96
9861;DHT22;4969;52.304;4.968;2023-03-20T04:31:13;16.20;63.09
9861;DHT22;4969;52.304;4.968;2023-03-20T04:33:39;16.00;57.92
9861;DHT22;4969;52.304;4.968;2023-03-20T04:36:07;15.06;60.33
9861;DHT22;4969;52.304;4.968;2023-03-20T04:38:33;14.67;64.24
9861;DHT22;4969;52.304;4.968;2023-03-20T04:41:00;15.48;66.05
9861;DHT22;4969;52.304;4.968;2023-03-20T04:43:29;14.78;62.88
9861;DHT22;4969;52.304;4.968;2023-03-20T04:45:55;14.64;63.17
9861;DHT22;4969;52.304;4.968;2023-03-20T04:48:22;14.55;62.24
9861;DHT22;4969;52.304;4.968;2023-03-20T04:50:48;14.54;63.74
9861;DHT22;4969;52.304;4.968;2023-03-20T04:53:16;14.23;62.44
9861;DHT22;4969;52.304;4.968;2023-03-20T04:55:43;14.89;67.73
9861;DHT22;4969;52.304;4.968;2023-03-20T04:58:10;16.06;64.54
9861;DHT22;4969;52.304;4.968;2023-03-20T05:00:38;15.97;62.41
9861;DHT22;4969;52.304;4.968;2023-03-20T05:03:04;15.57;63.53
9861;DHT22;4969;52.304;4.968;2023-03-20T05:05:31;15.68;62.64
9861;DHT22;4969;52.304;4.968;2023-03-20T05:07:58;15.61;62.44
9861;DHT22;4969;52.304;4.968;2023-03-20T05:10:25;15.62;64.40
9861;DHT22;4969;52.304;4.968;2023-03-20T05:12:51;15.76;64.60
9861;DHT22;4969;52.304;4.968;2023-03-20T05:15:18;16.58;62.30
9861;DHT22;4969;52.304;4.968;2023-03-20T05:17:46;16.21;60.71
9861;DHT22;4969;52.304;4.968;2023-03-20T05:20:14;15.81;60.60
9861;DHT22;4969;52.304;4.968;2023-03-20T05:22:40;16.14;63.97
9861;DHT22;4969;52.304;4.968;2023-03-20T05:25:07;15.20;60.95
9861;DHT22;4969;52.304;4.968;2023-03-20T05:27:34;15.21;64.64
9861;DHT22;4969;52.304;4.968;2023-03-20T05:30:00;15.48;64.60
9861;DHT22;4969;52.304;4.968;2023-03-20T05:32:28;15.64;65.22
9861;DHT22;4969;52.304;4.968;2023-03-20T05:34:56;16.12;63.15
9861;DHT22;4969;52.304;4.968;2023-03-20T05:37:23;15.94;63.87
9861;DHT22;4969;52.304;4.968;2023-03-20T05:39:49;14.86;57.74
9861;DHT22;4969;52.304;4.968;2023-03-20T05:42:16;14.61;62.02
9861;DHT22;4969;52.304;4.968;2023-03-20T05:44:42;15.55;63.88
9861;DHT22;4969;52.304;4.968;2023-03-20T05:47:09;15.20;60.47
9861;DHT22;4969;52.304;4.968;2023-03-20T05:49:35;15.36;61.28
9861;DHT22;4969;52.304;4.968;2023-03-20T05:52:03;14.85;64.99
9861;DHT22;4969;52.304;4.968;2023-03-20T05:54:30;15.44;63.13
9861;DHT22;4969;52.304;4.968;2023-03-20T05:56:56;14.69;64.80
9861;DHT22;4969;52.304;4.968;2023-03-20T05:59:23;14.48;64.54
9861;DHT22;4969;52.304;4.968;2023-03-20T06:01:49;14.90;62.83
9861;DHT22;4969;52.304;4.968;2023-03-20T06:04:16;15.17;65.27
9861;DHT22;4969;52.304;4.968;2023-03-20T06:06:43;15.02;60.49
9861;DHT22;4969;52.304;4.968;2023-03-20T06:09:11;14.99;66.01
9861;DHT22;4969;52.304;4.968;2023-03-20T06:11:37;15.85;63.58
9861;DHT22;4969;52.304;4.968;2023-03-20T06:14:04;15.68;61.33
9861;DHT22;4969;52.304;4.968;2023-03-20T06:16:30;14.98;63.66
9861;DHT22;4969;52.304;4.968;2023-03-20T06:18:57;15.89;63.29
9861;DHT22;4969;52.304;4.968;2023-03-20T06:21:24;16.24;58.47
9861;DHT22;4969;52.304;4.968;2023-03-20T06:23:50;14.73;60.42
9861;DHT22;4969;52.304;4.968;2023-03-20T06:26:20;14.14;65.08
9861;DHT22;4969;52.304;4.968;2023-03-20T06:28:46;14.86;65.70
9861;DHT22;4969;52.304;4.968;2023-03-20T06:31:13;14.69;64.72
9861;DHT22;4969;52.304;4.968;2023-03-20T06:33:40;14.90;64.03
9861;DHT22;4969;52.304;4.968;2023-03-20T06:36:07;14.79;63.31
9861;DHT22;4969;52.304;4.968;2023-03-20T06:38:34;15.73;63.61
9861;DHT22;4969;52.304;4.968;2023-03-20T06:41:01;15.41;63.08
9861;DHT22;4969;52.304;4.968;2023-03-20T06:43:28;15.47;62.22
9861;DHT22;4969;52.304;4.968;2023-03-20T06:45:55;15.48;62.43
9861;DHT22;4969;52.304;4.968;2023-03-20T06:48:21;14.27;64.21
9861;DHT22;4969;52.304;4.968;2023-03-20T06:50:48;14.71;64.72
9861;DHT22;4969;52.304;4.968;2023-03-20T06:53:15;15.10;65.79
9861;DHT22;4969;52.304;4.968;2023-03-20T06:55:42;16.09;61.57
9861;DHT22;4969;52.304;4.968;2023-03-20T06:58:11;15.94;60.34
9861;DHT22;4969;52.304;4.968;2023-03-20T07:00:39;15.21;62.42
9861;DHT22;4969;52.304;4.968;2023-03-20T07:03:06;14.34;61.54
9861;DHT22;4969;52.304;4.968;2023-03-20T07:05:33;14.62;60.18
9861;DHT22;4969;52.304;4.968;2023-03-20T07:07:59;14.41;60.18
9861;DHT22;4969;52.304;4.968;2023-03-20T07:10:26;14.76;63.59
9861;DHT22;4969;52.304;4.968;2023-03-20T07:12:53;14.86;64.13
9861;DHT22;4969;52.304;4.968;2023-03-20T07:15:20;14.30;60.16
9861;DHT22;4969;52.304;4.968;2023-03-20T07:17:48;13.71;64.05
9861;DHT22;4969;52.304;4.968;2023-03-20T07:20:14;14.50;65.98
9861;DHT22;4969;52.304;4.968;2023-03-20T07:22:41;14.40;65.85
9861;DHT22;4969;52.304;4.968;2023-03-20T07:25:09;14.37;63.72
9861;DHT22;4969;52.304;4.968;2023-03-20T07:27:35;14.88;66.22
9861;DHT22;4969;52.304;4.968;2023-03-20T07:30:03;14.47;61.78
9861;DHT22;4969;52.304;4.968;2023-03-20T07:32:30;14.34;65.28
9861;DHT22;4969;52.304;4.968;2023-03-20T07:34:58;14.55;64.02
9861;DHT22;4969;52.304;4.968;2023-03-20T07:37:25;13.50;61.35
9861;DHT22;4969;52.304;4.968;2023-03-20T07:39:51;13.07;64.60
9861;DHT22;4969;52.304;4.968;2023-03-20T07:42:18;13.19;66.94
9861;DHT22;4969;52.304;4.968;2023-03-20T07:44:44;12.89;65.44
9861;DHT22;4969;52.304;4.968;2023-03-20T07:47:11;13.45;66.12
9861;DHT22;4969;52.304;4.968;2023-03-20T07:49:37;13.55;64.72
9861;DHT22;4969;52.304;4.968;2023-03-20T07:52:05;14.54;64.86
9861;DHT22;4969;52.304;4.968;2023-03-20T07:54:32;13.51;62.87
9861;DHT22;4969;52.304;4.968;2023-03-20T07:56:58;13.24;66.20
9861;DHT22;4969;52.304;4.968;2023-03-20T07:59:25;13.31;66.46
9861;DHT22;4969;52.304;4.968;2023-03-20T08:01:52;14.16;68.35
9861;DHT22;4969;52.304;4.968;2023-03-20T08:04:19;13.89;62.40
9861;DHT22;4969;52.304;4.968;2023-03-20T08:06:46;14.06;68.13
9861;DHT22;4969;52.304;4.968;2023-03-20T08:09:15;13.63;64.75
9861;DHT22;4969;52.304;4.968;2023-03-20T08:11:41;13.17;65.38
9861;DHT22;4969;52.304;4.968;2023-03-20T08:14:08;13.00;68.17
9861;DHT22;4969;52.304;4.968;2023-03-20T08:16:34;13.05;66.07
9861;DHT22;4969;52.304;4.968;2023-03-20T08:19:01;12.95;65.39
9861;DHT22;4969;52.304;4.968;2023-03-20T08:21:30;13.20;70.52
9861;DHT22;4969;52.304;4.968;2023-03-20T08:23:57;12.82;65.43
9861;DHT22;4969;52.304;4.968;2023-03-20T08:26:25;12.68;67.21
9861;DHT22;4969;52.304;4.968;2023-03-20T08:28:51;12.69;66.40
9861;DHT22;4969;52.304;4.968;2023-03-20T08:31:18;14.09;67.64
9861;DHT22;4969;52.304;4.968;2023-03-20T08:33:45;13.69;67.86
9861;DHT22;4969;52.304;4.968;2023-03-20T08:36:12;13.75;65.27
9861;DHT22;4969;52.304;4.968;2023-03-20T08:38:39;13.40;65.84
9861;DHT22;4969;52.304;4.968;2023-03-20T08:41:06;13.24;66.85
9861;DHT22;4969;52.304;4.968;2023-03-20T08:43:34;13.72;65.80
9861;DHT22;4969;52.304;4.968;2023-03-20T08:46:01;13.61;64.40
9861;DHT22;4969;52.304;4.968;2023-03-20T08:48:28;13.38;66.07
9861;DHT22;4969;52.304;4.968;2023-03-20T08:50:54;12.82;66.07
9861;DHT22;4969;52.304;4.968;2023-03-20T08:53:21;13.22;70.01
9861;DHT22;4969;52.304;4.968;2023-03-20T08:55:48;12.91;66.40
9861;DHT22;4969;52.304;4.968;2023-03-20T08:58:15;12.99;66.80
9861;DHT22;4969;52.304;4.968;2023-03-20T09:00:43;12.80;66.50
9861;DHT22;4969;52.304;4.968;2023-03-20T09:03:10;13.19;69.32
9861;DHT22;4969;52.304;4.968;2023-03-20T09:05:38;13.37;67.82
9861;DHT22;4969;52.304;4.968;2023-03-20T09:08:05;13.27;68.41
9861;DHT22;4969;52.304;4.968;2023-03-20T09:10:32;13.71;68.42
9861;DHT22;4969;52.304;4.968;2023-03-20T09:12:59;14.28;67.39
9861;DHT22;4969;52.304;4.968;2023-03-20T09:15:26;14.51;66.71
9861;DHT22;4969;52.304;4.968;2023-03-20T09:17:54;14.58;65.19
9861;DHT22;4969;52.304;4.968;2023-03-20T09:20:20;13.45;64.43
9861;DHT22;4969;52.304;4.968;2023-03-20T09:22:47;13.59;69.85
9861;DHT22;4969;52.304;4.968;2023-03-20T09:25:14;14.68;65.86
9861;DHT22;4969;52.304;4.968;2023-03-20T09:27:40;14.41;65.81
9861;DHT22;4969;52.304;4.968;2023-03-20T09:30:10;14.10;66.78
9861;DHT22;4969;52.304;4.968;2023-03-20T09:32:37;14.38;66.21
9861;DHT22;4969;52.304;4.968;2023-03-20T09:35:05;14.06;65.15
9861;DHT22;4969;52.304;4.968;2023-03-20T09:37:32;14.51;67.16
9861;DHT22;4969;52.304;4.968;2023-03-20T09:39:58;14.86;66.21
9861;DHT22;4969;52.304;4.968;2023-03-20T09:42:35;14.73;67.39
9861;DHT22;4969;52.304;4.968;2023-03-20T09:45:10;14.30;68.30
9861;DHT22;4969;52.304;4.968;2023-03-20T09:47:46;15.11;65.09
9861;DHT22;4969;52.304;4.968;2023-03-20T09:50:23;15.28;64.88
9861;DHT22;4969;52.304;4.968;2023-03-20T09:52:55;14.82;65.11
9861;DHT22;4969;52.304;4.968;2023-03-20T09:55:26;15.37;62.35
9861;DHT22;4969;52.304;4.968;2023-03-20T09:57:57;15.20;66.58
9861;DHT22;4969;52.304;4.968;2023-03-20T10:00:27;15.30;65.69
9861;DHT22;4969;52.304;4.968;2023-03-20T10:02:58;14.95;66.38
9861;DHT22;4969;52.304;4.968;2023-03-20T10:05:28;14.78;65.04
9861;DHT22;4969;52.304;4.968;2023-03-20T10:07:57;15.24;64.82
9861;DHT22;4969;52.304;4.968;2023-03-20T10:10:30;15.13;65.20
9861;DHT22;4969;52.304;4.968;2023-03-20T10:13:11;15.55;67.21
9861;DHT22;4969;52.304;4.968;2023-03-20T10:15:45;15.78;66.41
9861;DHT22;4969;52.304;4.968;2023-03-20T10:18:18;15.94;65.12
9861;DHT22;4969;52.304;4.968;2023-03-20T10:20:54;16.33;65.16
9861;DHT22;4969;52.304;4.968;2023-03-20T10:23:27;15.55;62.56
9861;DHT22;4969;52.304;4.968;2023-03-20T10:25:59;14.99;67.29
9861;DHT22;4969;52.304;4.968;2023-03-20T10:28:30;15.20;67.49
9861;DHT22;4969;52.304;4.968;2023-03-20T10:31:08;15.57;66.09
9861;DHT22;4969;52.304;4.968;2023-03-20T10:33:49;15.37;69.13
9861;DHT22;4969;52.304;4.968;2023-03-20T10:36:31;16.28;62.54
9861;DHT22;4969;52.304;4.968;2023-03-20T10:39:08;16.24;60.66
9861;DHT22;4969;52.304;4.968;2023-03-20T10:41:42;14.85;63.10
9861;DHT22;4969;52.304;4.968;2023-03-20T10:44:14;14.79;67.82
9861;DHT22;4969;52.304;4.968;2023-03-20T10:46:44;14.90;65.52
9861;DHT22;4969;52.304;4.968;2023-03-20T10:49:16;14.83;67.11
9861;DHT22;4969;52.304;4.968;2023-03-20T10:51:47;15.03;67.54
9861;DHT22;4969;52.304;4.968;2023-03-20T10:54:21;14.37;67.04
9861;DHT22;4969;52.304;4.968;2023-03-20T10:56:48;13.69;65.68
9861;DHT22;4969;52.304;4.968;2023-03-20T10:59:22;14.51;70.17
9861;DHT22;4969;52.304;4.968;2023-03-20T11:01:49;14.76;66.47
9861;DHT22;4969;52.304;4.968;2023-03-20T11:04:15;15.09;66.29
9861;DHT22;4969;52.304;4.968;2023-03-20T11:06:47;14.72;65.58
9861;DHT22;4969;52.304;4.968;2023-03-20T11:09:20;14.38;69.60
9861;DHT22;4969;52.304;4.968;2023-03-20T11:11:47;15.72;68.25
9861;DHT22;4969;52.304;4.968;2023-03-20T11:14:18;15.79;64.64
9861;DHT22;4969;52.304;4.968;2023-03-20T11:16:47;14.83;65.39
9861;DHT22;4969;52.304;4.968;2023-03-20T11:19:13;14.82;66.12
9861;DHT22;4969;52.304;4.968;2023-03-20T11:21:47;15.09;66.96
9861;DHT22;4969;52.304;4.968;2023-03-20T11:24:23;14.76;65.99
9861;DHT22;4969;52.304;4.968;2023-03-20T11:26:50;14.81;68.14
9861;DHT22;4969;52.304;4.968;2023-03-20T11:29:28;16.37;66.63
9861;DHT22;4969;52.304;4.968;2023-03-20T11:32:04;15.79;62.89
9861;DHT22;4969;52.304;4.968;2023-03-20T11:34:32;15.78;69.02
9861;DHT22;4969;52.304;4.968;2023-03-20T11:37:06;15.30;65.70
9861;DHT22;4969;52.304;4.968;2023-03-20T11:39:33;15.53;68.15
9861;DHT22;4969;52.304;4.968;2023-03-20T11:42:01;15.75;66.40
9861;DHT22;4969;52.304;4.968;2023-03-20T11:44:30;15.31;67.12
9861;DHT22;4969;52.304;4.968;2023-03-20T11:47:01;14.99;67.60
9861;DHT22;4969;52.304;4.968;2023-03-20T11:49:28;15.10;69.74
9861;DHT22;4969;52.304;4.968;2023-03-20T11:51:59;15.40;64.84
9861;DHT22;4969;52.304;4.968;2023-03-20T11:54:28;15.61;65.28
9861;DHT22;4969;52.304;4.968;2023-03-20T11:56:57;14.95;68.13
9861;DHT22;4969;52.304;4.968;2023-03-20T11:59:25;15.72;69.22
9861;DHT22;4969;52.304;4.968;2023-03-20T12:01:56;15.41;68.47
9861;DHT22;4969;52.304;4.968;2023-03-20T12:04:27;15.89;66.82
9861;DHT22;4969;52.304;4.968;2023-03-20T12:06:56;16.27;63.76
9861;DHT22;4969;52.304;4.968;2023-03-20T12:09:34;15.48;64.02
9861;DHT22;4969;52.304;4.968;2023-03-20T12:12:07;15.53;64.11
9861;DHT22;4969;52.304;4.968;2023-03-20T12:14:38;15.23;67.49
9861;DHT22;4969;52.304;4.968;2023-03-20T12:17:26;16.20;63.70
9861;DHT22;4969;52.304;4.968;2023-03-20T12:20:00;15.93;62.36
9861;DHT22;4969;52.304;4.968;2023-03-20T12:22:30;16.03;68.31
9861;DHT22;4969;52.304;4.968;2023-03-20T12:25:07;15.55;67.56
9861;DHT22;4969;52.304;4.968;2023-03-20T12:27:37;15.72;69.04
9861;DHT22;4969;52.304;4.968;2023-03-20T12:30:11;15.47;67.20
9861;DHT22;4969;52.304;4.968;2023-03-20T12:32:41;15.51;66.74
9861;DHT22;4969;52.304;4.968;2023-03-20T12:35:14;15.85;67.23
9861;DHT22;4969;52.304;4.968;2023-03-20T12:37:42;15.76;68.12
9861;DHT22;4969;52.304;4.968;2023-03-20T12:40:14;16.06;67.27
9861;DHT22;4969;52.304;4.968;2023-03-20T12:42:54;16.05;69.38
9861;DHT22;4969;52.304;4.968;2023-03-20T12:45:26;15.68;64.01
9861;DHT22;4969;52.304;4.968;2023-03-20T12:48:05;15.28;65.19
9861;DHT22;4969;52.304;4.968;2023-03-20T12:50:37;15.55;66.52
9861;DHT22;4969;52.304;4.968;2023-03-20T12:53:16;16.48;63.79
9861;DHT22;4969;52.304;4.968;2023-03-20T12:55:56;16.10;65.36
9861;DHT22;4969;52.304;4.968;2023-03-20T12:58:31;16.05;65.17
9861;DHT22;4969;52.304;4.968;2023-03-20T13:01:03;16.75;63.63
9861;DHT22;4969;52.304;4.968;2023-03-20T13:03:47;16.08;64.68
9861;DHT22;4969;52.304;4.968;2023-03-20T13:06:19;16.42;64.46
9861;DHT22;4969;52.304;4.968;2023-03-20T13:09:03;16.48;64.02
9861;DHT22;4969;52.304;4.968;2023-03-20T13:11:41;16.23;63.90
9861;DHT22;4969;52.304;4.968;2023-03-20T13:14:13;15.97;63.58
9861;DHT22;4969;52.304;4.968;2023-03-20T13:16:47;16.05;64.75
9861;DHT22;4969;52.304;4.968;2023-03-20T13:19:23;15.71;63.31
9861;DHT22;4969;52.304;4.968;2023-03-20T13:21:55;15.51;63.98
9861;DHT22;4969;52.304;4.968;2023-03-20T13:24:32;15.44;62.62
9861;DHT22;4969;52.304;4.968;2023-03-20T13:27:10;16.12;64.53
9861;DHT22;4969;52.304;4.968;2023-03-20T13:29:44;15.87;62.54
9861;DHT22;4969;52.304;4.968;2023-03-20T13:32:21;15.92;63.78
9861;DHT22;4969;52.304;4.968;2023-03-20T13:35:13;15.40;66.69
9861;DHT22;4969;52.304;4.968;2023-03-20T13:37:45;15.40;67.18
9861;DHT22;4969;52.304;4.968;2023-03-20T13:40:16;15.58;67.45
9861;DHT22;4969;52.304;4.968;2023-03-20T13:42:52;16.05;66.31
9861;DHT22;4969;52.304;4.968;2023-03-20T13:45:30;16.80;64.99
9861;DHT22;4969;52.304;4.968;2023-03-20T13:48:02;16.30;61.36
9861;DHT22;4969;52.304;4.968;2023-03-20T13:50:40;16.13;65.72
9861;DHT22;4969;52.304;4.968;2023-03-20T13:53:15;16.17;64.56
9861;DHT22;4969;52.304;4.968;2023-03-20T13:55:52;15.92;68.11
9861;DHT22;4969;52.304;4.968;2023-03-20T13:58:39;16.77;66.21
9861;DHT22;4969;52.304;4.968;2023-03-20T14:01:10;16.28;62.93
9861;DHT22;4969;52.304;4.968;2023-03-20T14:03:43;15.92;64.11
9861;DHT22;4969;52.304;4.968;2023-03-20T14:09:00;15.62;66.86
9861;DHT22;4969;52.304;4.968;2023-03-20T14:11:28;15.36;67.97
9861;DHT22;4969;52.304;4.968;2023-03-20T14:14:04;15.81;67.23
9861;DHT22;4969;52.304;4.968;2023-03-20T14:16:32;15.65;63.68
9861;DHT22;4969;52.304;4.968;2023-03-20T14:19:12;16.24;67.13
9861;DHT22;4969;52.304;4.968;2023-03-20T14:21:44;16.03;66.00
9861;DHT22;4969;52.304;4.968;2023-03-20T14:24:13;16.13;66.93
9861;DHT22;4969;52.304;4.968;2023-03-20T14:26:42;15.83;67.41
9861;DHT22;4969;52.304;4.968;2023-03-20T14:29:30;15.97;65.99
9861;DHT22;4969;52.304;4.968;2023-03-20T14:34:48;16.10;66.04
9861;DHT22;4969;52.304;4.968;2023-03-20T14:37:34;16.23;67.70
9861;DHT22;4969;52.304;4.968;2023-03-20T14:40:13;15.72;66.66
9861;DHT22;4969;52.304;4.968;2023-03-20T14:42:48;15.58;67.75
9861;DHT22;4969;52.304;4.968;2023-03-20T14:45:35;15.86;67.32
9861;DHT22;4969;52.304;4.968;2023-03-20T14:48:10;16.23;63.87
9861;DHT22;4969;52.304;4.968;2023-03-20T14:50:50;16.28;67.97
9861;DHT22;4969;52.304;4.968;2023-03-20T14:53:20;16.10;66.90
9861;DHT22;4969;52.304;4.968;2023-03-20T14:55:50;16.27;67.82
9861;DHT22;4969;52.304;4.968;2023-03-20T14:58:45;16.19;64.44
9861;DHT22;4969;52.304;4.968;2023-03-20T15:01:24;15.93;66.42
9861;DHT22;4969;52.304;4.968;2023-03-20T15:03:54;16.17;67.72
9861;DHT22;4969;52.304;4.968;2023-03-20T15:06:24;16.54;64.71
9861;DHT22;4969;52.304;4.968;2023-03-20T15:08:52;16.44;65.89
9861;DHT22;4969;52.304;4.968;2023-03-20T15:11:21;16.06;66.52
9861;DHT22;4969;52.304;4.968;2023-03-20T15:13:50;16.66;65.34
9861;DHT22;4969;52.304;4.968;2023-03-20T15:16:25;16.31;64.14
9861;DHT22;4969;52.304;4.968;2023-03-20T15:18:52;16.73;66.09
9861;DHT22;4969;52.304;4.968;2023-03-20T15:21:25;16.76;63.72
9861;DHT22;4969;52.304;4.968;2023-03-20T15:23:53;16.17;65.76
9861;DHT22;4969;52.304;4.968;2023-03-20T15:26:21;15.45;65.76
9861;DHT22;4969;52.304;4.968;2023-03-20T15:28:59;15.41;67.68
9861;DHT22;4969;52.304;4.968;2023-03-20T15:31:30;15.44;69.58
9861;DHT22;4969;52.304;4.968;2023-03-20T15:33:57;15.23;67.31
9861;DHT22;4969;52.304;4.968;2023-03-20T15:36:26;15.36;68.93
9861;DHT22;4969;52.304;4.968;2023-03-20T15:39:02;15.09;69.11
9861;DHT22;4969;52.304;4.968;2023-03-20T15:41:31;15.30;69.30
9861;DHT22;4969;52.304;4.968;2023-03-20T15:44:11;15.37;69.43
9861;DHT22;4969;52.304;4.968;2023-03-20T15:46:49;15.31;69.27
9861;DHT22;4969;52.304;4.968;2023-03-20T15:49:16;14.89;69.23
9861;DHT22;4969;52.304;4.968;2023-03-20T15:51:43;15.81;68.49
9861;DHT22;4969;52.304;4.968;2023-03-20T15:54:11;15.20;67.47
9861;DHT22;4969;52.304;4.968;2023-03-20T15:56:39;14.99;70.16
9861;DHT22;4969;52.304;4.968;2023-03-20T15:59:09;15.33;69.67
9861;DHT22;4969;52.304;4.968;2023-03-20T16:01:38;16.00;67.14
9861;DHT22;4969;52.304;4.968;2023-03-20T16:04:08;15.72;68.16
9861;DHT22;4969;52.304;4.968;2023-03-20T16:06:44;15.13;66.62
9861;DHT22;4969;52.304;4.968;2023-03-20T16:09:13;15.06;70.19
9861;DHT22;4969;52.304;4.968;2023-03-20T16:11:41;15.13;69.22
9861;DHT22;4969;52.304;4.968;2023-03-20T16:14:12;14.88;68.26
9861;DHT22;4969;52.304;4.968;2023-03-20T16:16:40;14.64;69.71
9861;DHT22;4969;52.304;4.968;2023-03-20T16:19:11;14.81;72.14
9861;DHT22;4969;52.304;4.968;2023-03-20T16:21:40;14.89;69.93
9861;DHT22;4969;52.304;4.968;2023-03-20T16:24:15;14.28;71.18
9861;DHT22;4969;52.304;4.968;2023-03-20T16:26:44;14.28;70.13
9861;DHT22;4969;52.304;4.968;2023-03-20T16:29:14;14.41;71.01
9861;DHT22;4969;52.304;4.968;2023-03-20T16:31:46;14.12;71.74
9861;DHT22;4969;52.304;4.968;2023-03-20T16:34:17;14.14;72.81
9861;DHT22;4969;52.304;4.968;2023-03-20T16:36:50;14.75;70.77
9861;DHT22;4969;52.304;4.968;2023-03-20T16:39:19;14.71;70.91